sensor_id;sensor_type;location;lat;lon;timestamp;P1;durP1;ratioP1;P2;durP2;ratioP2
4232;SDS011;2130;48.472;11.934;2023-03-15T00:00:11;16.80;;;1.20;;
4232;SDS011;2130;48.472;11.934;2023-03-15T00:03:01;15.40;;;1.10;;
4232;SDS011;2130;48.472;11.934;2023-03-15T00:05:50;15.57;;;0.93;;
4232;SDS011;2130;48.472;11.934;2023-03-15T00:08:39;15.30;;;1.17;;
4232;SDS011;2130;48.472;11.934;2023-03-15T00:11:28;15.50;;;1.10;;
4232;SDS011;2130;48.472;11.934;2023-03-15T00:14:19;17.27;;;1.10;;
4232;SDS011;2130;48.472;11.934;2023-03-15T00:17:07;16.27;;;1.20;;
4232;SDS011;2130;48.472;11.934;2023-03-15T00:19:56;17.53;;;1.40;;
4232;SDS011;2130;48.472;11.934;2023-03-15T00:22:44;15.63;;;1.10;;
4232;SDS011;2130;48.472;11.934;2023-03-15T00:25:32;16.23;;;1.13;;
4232;SDS011;2130;48.472;11.934;2023-03-15T00:28:21;16.33;;;1.10;;
4232;SDS011;2130;48.472;11.934;2023-03-15T00:31:14;15.00;;;1.10;;
4232;SDS011;2130;48.472;11.934;2023-03-15T00:34:04;16.00;;;1.37;;
4232;SDS011;2130;48.472;11.934;2023-03-15T00:36:52;18.73;;;1.23;;
4232;SDS011;2130;48.472;11.934;2023-03-15T00:39:41;15.10;;;1.03;;
4232;SDS011;2130;48.472;11.934;2023-03-15T00:42:31;15.03;;;1.10;;
4232;SDS011;2130;48.472;11.934;2023-03-15T00:45:20;16.67;;;1.20;;
4232;SDS011;2130;48.472;11.934;2023-03-15T00:48:10;15.23;;;1.10;;
4232;SDS011;2130;48.472;11.934;2023-03-15T00:51:02;15.60;;;1.10;;
4232;SDS011;2130;48.472;11.934;2023-03-15T00:53:52;15.93;;;1.10;;
4232;SDS011;2130;48.472;11.934;2023-03-15T00:56:40;16.60;;;1.30;;
4232;SDS011;2130;48.472;11.934;2023-03-15T00:59:29;16.13;;;1.23;;
4232;SDS011;2130;48.472;11.934;2023-03-15T01:02:20;15.70;;;1.20;;
4232;SDS011;2130;48.472;11.934;2023-03-15T01:05:12;16.67;;;1.17;;
4232;SDS011;2130;48.472;11.934;2023-03-15T01:08:01;15.30;;;1.10;;
4232;SDS011;2130;48.472;11.934;2023-03-15T01:10:49;18.87;;;1.37;;
4232;SDS011;2130;48.472;11.934;2023-03-15T01:13:38;15.20;;;1.13;;
4232;SDS011;2130;48.472;11.934;2023-03-15T01:16:27;17.17;;;1.30;;
4232;SDS011;2130;48.472;11.934;2023-03-15T01:19:16;16.67;;;1.37;;
4232;SDS011;2130;48.472;11.934;2023-03-15T01:22:06;16.73;;;1.20;;
4232;SDS011;2130;48.472;11.934;2023-03-15T01:24:54;16.10;;;1.30;;
4232;SDS011;2130;48.472;11.934;2023-03-15T01:27:43;16.03;;;1.10;;
4232;SDS011;2130;48.472;11.934;2023-03-15T01:30:31;16.40;;;1.33;;
4232;SDS011;2130;48.472;11.934;2023-03-15T01:33:20;17.50;;;1.10;;
4232;SDS011;2130;48.472;11.934;2023-03-15T01:36:09;16.50;;;1.40;;
4232;SDS011;2130;48.472;11.934;2023-03-15T01:39:00;15.57;;;1.27;;
4232;SDS011;2130;48.472;11.934;2023-03-15T01:42:01;18.40;;;1.20;;
4232;SDS011;2130;48.472;11.934;2023-03-15T01:44:51;15.50;;;1.10;;
4232;SDS011;2130;48.472;11.934;2023-03-15T01:47:40;16.70;;;1.37;;
4232;SDS011;2130;48.472;11.934;2023-03-15T01:50:30;15.20;;;1.30;;
4232;SDS011;2130;48.472;11.934;2023-03-15T01:53:18;20.50;;;1.70;;
4232;SDS011;2130;48.472;11.934;2023-03-15T01:56:08;15.40;;;1.10;;
4232;SDS011;2130;48.472;11.934;2023-03-15T01:58:57;15.20;;;1.33;;
4232;SDS011;2130;48.472;11.934;2023-03-15T02:01:47;16.10;;;1.10;;
4232;SDS011;2130;48.472;11.934;2023-03-15T02:04:37;17.47;;;1.30;;
4232;SDS011;2130;48.472;11.934;2023-03-15T02:07:28;18.23;;;1.30;;
4232;SDS011;2130;48.472;11.934;2023-03-15T02:10:22;18.10;;;1.37;;
4232;SDS011;2130;48.472;11.934;2023-03-15T02:13:18;17.00;;;1.20;;
4232;SDS011;2130;48.472;11.934;2023-03-15T02:16:09;17.20;;;1.37;;
4232;SDS011;2130;48.472;11.934;2023-03-15T02:19:06;20.10;;;1.60;;
4232;SDS011;2130;48.472;11.934;2023-03-15T02:22:00;16.90;;;1.23;;
4232;SDS011;2130;48.472;11.934;2023-03-15T02:24:59;17.30;;;1.47;;
4232;SDS011;2130;48.472;11.934;2023-03-15T02:27:53;17.70;;;1.40;;
4232;SDS011;2130;48.472;11.934;2023-03-15T02:30:42;16.60;;;1.13;;
4232;SDS011;2130;48.472;11.934;2023-03-15T02:33:31;17.07;;;1.50;;
4232;SDS011;2130;48.472;11.934;2023-03-15T02:36:23;16.60;;;1.40;;
4232;SDS011;2130;48.472;11.934;2023-03-15T02:39:13;17.00;;;1.27;;
4232;SDS011;2130;48.472;11.934;2023-03-15T02:42:04;16.90;;;1.50;;
4232;SDS011;2130;48.472;11.934;2023-03-15T02:44:54;18.10;;;1.37;;
4232;SDS011;2130;48.472;11.934;2023-03-15T02:47:43;18.13;;;1.40;;
4232;SDS011;2130;48.472;11.934;2023-03-15T02:50:34;17.80;;;1.63;;
4232;SDS011;2130;48.472;11.934;2023-03-15T02:53:22;23.57;;;1.57;;
4232;SDS011;2130;48.472;11.934;2023-03-15T02:56:11;20.13;;;1.40;;
4232;SDS011;2130;48.472;11.934;2023-03-15T02:59:00;17.43;;;1.40;;
4232;SDS011;2130;48.472;11.934;2023-03-15T03:01:51;16.77;;;1.33;;
4232;SDS011;2130;48.472;11.934;2023-03-15T03:04:39;18.90;;;1.50;;
4232;SDS011;2130;48.472;11.934;2023-03-15T03:07:28;17.03;;;1.73;;
4232;SDS011;2130;48.472;11.934;2023-03-15T03:10:22;19.83;;;1.60;;
4232;SDS011;2130;48.472;11.934;2023-03-15T03:13:16;18.37;;;1.90;;
4232;SDS011;2130;48.472;11.934;2023-03-15T03:16:05;25.33;;;1.87;;
4232;SDS011;2130;48.472;11.934;2023-03-15T03:18:55;21.00;;;1.57;;
4232;SDS011;2130;48.472;11.934;2023-03-15T03:21:43;22.23;;;1.80;;
4232;SDS011;2130;48.472;11.934;2023-03-15T03:24:32;22.07;;;1.70;;
4232;SDS011;2130;48.472;11.934;2023-03-15T03:27:20;21.97;;;1.67;;
4232;SDS011;2130;48.472;11.934;2023-03-15T03:30:10;21.27;;;1.47;;
4232;SDS011;2130;48.472;11.934;2023-03-15T03:33:06;24.00;;;1.67;;
4232;SDS011;2130;48.472;11.934;2023-03-15T03:36:00;21.93;;;1.80;;
4232;SDS011;2130;48.472;11.934;2023-03-15T03:38:50;22.53;;;1.50;;
4232;SDS011;2130;48.472;11.934;2023-03-15T03:41:40;22.33;;;1.50;;
4232;SDS011;2130;48.472;11.934;2023-03-15T03:44:30;24.83;;;1.57;;
4232;SDS011;2130;48.472;11.934;2023-03-15T03:47:19;27.73;;;1.57;;
4232;SDS011;2130;48.472;11.934;2023-03-15T03:50:08;23.83;;;1.57;;
4232;SDS011;2130;48.472;11.934;2023-03-15T03:53:00;23.70;;;1.57;;
4232;SDS011;2130;48.472;11.934;2023-03-15T03:55:52;26.73;;;1.80;;
4232;SDS011;2130;48.472;11.934;2023-03-15T03:58:42;23.43;;;1.40;;
4232;SDS011;2130;48.472;11.934;2023-03-15T04:01:36;23.50;;;1.60;;
4232;SDS011;2130;48.472;11.934;2023-03-15T04:04:24;32.53;;;1.60;;
4232;SDS011;2130;48.472;11.934;2023-03-15T04:07:13;23.53;;;1.57;;
4232;SDS011;2130;48.472;11.934;2023-03-15T04:10:05;24.77;;;1.50;;
4232;SDS011;2130;48.472;11.934;2023-03-15T04:12:55;23.30;;;1.50;;
4232;SDS011;2130;48.472;11.934;2023-03-15T04:15:44;23.33;;;1.50;;
4232;SDS011;2130;48.472;11.934;2023-03-15T04:18:32;23.17;;;1.60;;
4232;SDS011;2130;48.472;11.934;2023-03-15T04:21:21;23.33;;;1.50;;
4232;SDS011;2130;48.472;11.934;2023-03-15T04:24:14;23.83;;;1.70;;
4232;SDS011;2130;48.472;11.934;2023-03-15T04:27:36;25.40;;;1.63;;
4232;SDS011;2130;48.472;11.934;2023-03-15T04:30:48;25.93;;;1.57;;
4232;SDS011;2130;48.472;11.934;2023-03-15T04:33:55;25.10;;;1.40;;
4232;SDS011;2130;48.472;11.934;2023-03-15T04:37:08;25.13;;;1.33;;
4232;SDS011;2130;48.472;11.934;2023-03-15T04:40:20;26.10;;;1.50;;
4232;SDS011;2130;48.472;11.934;2023-03-15T04:43:31;25.60;;;1.37;;
4232;SDS011;2130;48.472;11.934;2023-03-15T04:46:40;24.10;;;1.53;;
4232;SDS011;2130;48.472;11.934;2023-03-15T04:49:45;23.40;;;1.63;;
4232;SDS011;2130;48.472;11.934;2023-03-15T04:52:56;24.03;;;1.43;;
4232;SDS011;2130;48.472;11.934;2023-03-15T04:56:07;24.90;;;1.37;;
4232;SDS011;2130;48.472;11.934;2023-03-15T04:58:59;25.13;;;1.40;;
4232;SDS011;2130;48.472;11.934;2023-03-15T05:02:12;24.57;;;1.40;;
4232;SDS011;2130;48.472;11.934;2023-03-15T05:05:39;27.10;;;1.47;;
4232;SDS011;2130;48.472;11.934;2023-03-15T05:08:46;25.00;;;1.37;;
4232;SDS011;2130;48.472;11.934;2023-03-15T05:11:50;24.73;;;1.60;;
4232;SDS011;2130;48.472;11.934;2023-03-15T05:14:58;25.77;;;1.70;;
4232;SDS011;2130;48.472;11.934;2023-03-15T05:17:54;25.73;;;1.40;;
4232;SDS011;2130;48.472;11.934;2023-03-15T05:21:00;25.90;;;1.63;;
4232;SDS011;2130;48.472;11.934;2023-03-15T05:24:30;27.17;;;2.10;;
4232;SDS011;2130;48.472;11.934;2023-03-15T05:27:31;26.20;;;1.70;;
4232;SDS011;2130;48.472;11.934;2023-03-15T05:30:39;29.20;;;1.80;;
4232;SDS011;2130;48.472;11.934;2023-03-15T05:33:51;25.60;;;1.60;;
4232;SDS011;2130;48.472;11.934;2023-03-15T05:36:59;26.30;;;2.10;;
4232;SDS011;2130;48.472;11.934;2023-03-15T05:40:22;28.03;;;1.63;;
4232;SDS011;2130;48.472;11.934;2023-03-15T05:43:33;26.70;;;2.20;;
4232;SDS011;2130;48.472;11.934;2023-03-15T05:46:52;28.90;;;2.37;;
4232;SDS011;2130;48.472;11.934;2023-03-15T05:49:40;26.90;;;2.10;;
4232;SDS011;2130;48.472;11.934;2023-03-15T05:52:51;26.73;;;2.30;;
4232;SDS011;2130;48.472;11.934;2023-03-15T05:55:58;26.70;;;1.83;;
4232;SDS011;2130;48.472;11.934;2023-03-15T05:59:09;32.27;;;2.30;;
4232;SDS011;2130;48.472;11.934;2023-03-15T06:02:17;26.90;;;1.73;;
4232;SDS011;2130;48.472;11.934;2023-03-15T06:05:20;27.27;;;1.50;;
4232;SDS011;2130;48.472;11.934;2023-03-15T06:08:10;25.63;;;1.87;;
4232;SDS011;2130;48.472;11.934;2023-03-15T06:11:01;25.17;;;2.03;;
4232;SDS011;2130;48.472;11.934;2023-03-15T06:13:51;30.73;;;2.20;;
4232;SDS011;2130;48.472;11.934;2023-03-15T06:16:53;26.73;;;2.10;;
4232;SDS011;2130;48.472;11.934;2023-03-15T06:19:44;25.93;;;1.60;;
4232;SDS011;2130;48.472;11.934;2023-03-15T06:22:32;26.30;;;1.80;;
4232;SDS011;2130;48.472;11.934;2023-03-15T06:25:27;26.53;;;2.00;;
4232;SDS011;2130;48.472;11.934;2023-03-15T06:28:16;25.73;;;1.77;;
4232;SDS011;2130;48.472;11.934;2023-03-15T06:31:12;25.90;;;1.90;;
4232;SDS011;2130;48.472;11.934;2023-03-15T06:34:10;26.23;;;1.67;;
4232;SDS011;2130;48.472;11.934;2023-03-15T06:37:00;24.80;;;1.87;;
4232;SDS011;2130;48.472;11.934;2023-03-15T06:39:49;26.70;;;1.90;;
4232;SDS011;2130;48.472;11.934;2023-03-15T06:42:39;28.40;;;2.03;;
4232;SDS011;2130;48.472;11.934;2023-03-15T06:45:31;25.70;;;1.97;;
4232;SDS011;2130;48.472;11.934;2023-03-15T06:48:19;24.87;;;1.77;;
4232;SDS011;2130;48.472;11.934;2023-03-15T06:51:08;25.70;;;1.87;;
4232;SDS011;2130;48.472;11.934;2023-03-15T06:53:58;27.63;;;1.60;;
4232;SDS011;2130;48.472;11.934;2023-03-15T06:56:47;24.73;;;1.97;;
4232;SDS011;2130;48.472;11.934;2023-03-15T06:59:36;26.40;;;2.07;;
4232;SDS011;2130;48.472;11.934;2023-03-15T07:02:25;26.70;;;1.57;;
4232;SDS011;2130;48.472;11.934;2023-03-15T07:05:13;25.67;;;1.77;;
4232;SDS011;2130;48.472;11.934;2023-03-15T07:08:02;26.63;;;2.00;;
4232;SDS011;2130;48.472;11.934;2023-03-15T07:10:52;32.97;;;2.30;;
4232;SDS011;2130;48.472;11.934;2023-03-15T07:13:40;23.80;;;2.37;;
4232;SDS011;2130;48.472;11.934;2023-03-15T07:16:29;32.60;;;3.00;;
4232;SDS011;2130;48.472;11.934;2023-03-15T07:19:17;25.13;;;2.20;;
4232;SDS011;2130;48.472;11.934;2023-03-15T07:22:06;26.03;;;1.73;;
4232;SDS011;2130;48.472;11.934;2023-03-15T07:24:54;25.80;;;2.40;;
4232;SDS011;2130;48.472;11.934;2023-03-15T07:27:44;26.13;;;2.40;;
4232;SDS011;2130;48.472;11.934;2023-03-15T07:30:32;26.10;;;1.83;;
4232;SDS011;2130;48.472;11.934;2023-03-15T07:33:21;26.63;;;2.07;;
4232;SDS011;2130;48.472;11.934;2023-03-15T07:36:10;26.40;;;2.30;;
4232;SDS011;2130;48.472;11.934;2023-03-15T07:38:58;25.97;;;2.10;;
4232;SDS011;2130;48.472;11.934;2023-03-15T07:41:47;30.43;;;2.43;;
4232;SDS011;2130;48.472;11.934;2023-03-15T07:44:47;29.20;;;2.63;;
4232;SDS011;2130;48.472;11.934;2023-03-15T07:47:36;25.23;;;2.10;;
4232;SDS011;2130;48.472;11.934;2023-03-15T07:50:24;28.07;;;2.00;;
4232;SDS011;2130;48.472;11.934;2023-03-15T07:53:12;22.37;;;1.80;;
4232;SDS011;2130;48.472;11.934;2023-03-15T07:56:01;23.53;;;1.83;;
4232;SDS011;2130;48.472;11.934;2023-03-15T07:58:49;22.83;;;2.30;;
4232;SDS011;2130;48.472;11.934;2023-03-15T08:01:39;24.93;;;2.23;;
4232;SDS011;2130;48.472;11.934;2023-03-15T08:04:27;26.87;;;2.20;;
4232;SDS011;2130;48.472;11.934;2023-03-15T08:07:16;26.23;;;2.40;;
4232;SDS011;2130;48.472;11.934;2023-03-15T08:10:04;21.67;;;2.00;;
4232;SDS011;2130;48.472;11.934;2023-03-15T08:12:54;30.90;;;2.30;;
4232;SDS011;2130;48.472;11.934;2023-03-15T08:15:43;23.17;;;2.37;;
4232;SDS011;2130;48.472;11.934;2023-03-15T08:18:33;23.80;;;2.60;;
4232;SDS011;2130;48.472;11.934;2023-03-15T08:21:22;21.73;;;2.10;;
4232;SDS011;2130;48.472;11.934;2023-03-15T08:24:10;23.93;;;2.10;;
4232;SDS011;2130;48.472;11.934;2023-03-15T08:26:59;24.57;;;2.20;;
4232;SDS011;2130;48.472;11.934;2023-03-15T08:29:48;22.67;;;2.53;;
4232;SDS011;2130;48.472;11.934;2023-03-15T08:32:39;26.90;;;3.07;;
4232;SDS011;2130;48.472;11.934;2023-03-15T08:35:29;23.60;;;2.07;;
4232;SDS011;2130;48.472;11.934;2023-03-15T08:38:19;24.53;;;1.90;;
4232;SDS011;2130;48.472;11.934;2023-03-15T08:41:07;25.87;;;2.50;;
4232;SDS011;2130;48.472;11.934;2023-03-15T08:43:55;26.53;;;2.40;;
4232;SDS011;2130;48.472;11.934;2023-03-15T08:46:44;21.00;;;2.10;;
4232;SDS011;2130;48.472;11.934;2023-03-15T08:49:32;19.90;;;2.10;;
4232;SDS011;2130;48.472;11.934;2023-03-15T08:52:22;21.50;;;2.03;;
4232;SDS011;2130;48.472;11.934;2023-03-15T08:55:10;23.13;;;1.70;;
4232;SDS011;2130;48.472;11.934;2023-03-15T08:58:00;24.03;;;1.80;;
4232;SDS011;2130;48.472;11.934;2023-03-15T09:00:50;22.60;;;2.50;;
4232;SDS011;2130;48.472;11.934;2023-03-15T09:03:39;22.53;;;2.13;;
4232;SDS011;2130;48.472;11.934;2023-03-15T09:06:28;24.03;;;2.13;;
4232;SDS011;2130;48.472;11.934;2023-03-15T09:09:18;19.30;;;2.03;;
4232;SDS011;2130;48.472;11.934;2023-03-15T09:12:07;20.13;;;2.00;;
4232;SDS011;2130;48.472;11.934;2023-03-15T09:14:55;19.23;;;1.50;;
4232;SDS011;2130;48.472;11.934;2023-03-15T09:17:44;19.83;;;2.23;;
4232;SDS011;2130;48.472;11.934;2023-03-15T09:20:32;23.53;;;2.50;;
4232;SDS011;2130;48.472;11.934;2023-03-15T09:23:21;23.70;;;1.80;;
4232;SDS011;2130;48.472;11.934;2023-03-15T09:26:10;22.17;;;1.80;;
4232;SDS011;2130;48.472;11.934;2023-03-15T09:28:59;24.93;;;2.40;;
4232;SDS011;2130;48.472;11.934;2023-03-15T09:31:47;21.50;;;1.80;;
4232;SDS011;2130;48.472;11.934;2023-03-15T09:34:36;22.40;;;1.90;;
4232;SDS011;2130;48.472;11.934;2023-03-15T09:37:28;21.50;;;2.27;;
4232;SDS011;2130;48.472;11.934;2023-03-15T09:40:18;21.00;;;1.47;;
4232;SDS011;2130;48.472;11.934;2023-03-15T09:43:14;23.23;;;1.70;;
4232;SDS011;2130;48.472;11.934;2023-03-15T09:46:15;23.47;;;2.03;;
4232;SDS011;2130;48.472;11.934;2023-03-15T09:49:12;22.63;;;2.30;;
4232;SDS011;2130;48.472;11.934;2023-03-15T09:52:07;22.63;;;1.97;;
4232;SDS011;2130;48.472;11.934;2023-03-15T09:55:02;18.23;;;1.67;;
4232;SDS011;2130;48.472;11.934;2023-03-15T09:57:55;21.20;;;1.80;;
4232;SDS011;2130;48.472;11.934;2023-03-15T10:00:47;19.10;;;1.63;;
4232;SDS011;2130;48.472;11.934;2023-03-15T10:03:37;20.10;;;1.97;;
4232;SDS011;2130;48.472;11.934;2023-03-15T10:06:30;22.50;;;1.57;;
4232;SDS011;2130;48.472;11.934;2023-03-15T10:09:24;16.17;;;1.30;;
4232;SDS011;2130;48.472;11.934;2023-03-15T10:12:14;20.30;;;1.90;;
4232;SDS011;2130;48.472;11.934;2023-03-15T10:15:14;18.20;;;1.90;;
4232;SDS011;2130;48.472;11.934;2023-03-15T10:21:25;18.00;;;1.83;;
4232;SDS011;2130;48.472;11.934;2023-03-15T10:24:21;15.37;;;1.70;;
4232;SDS011;2130;48.472;11.934;2023-03-15T10:27:14;17.47;;;1.77;;
4232;SDS011;2130;48.472;11.934;2023-03-15T10:30:12;24.63;;;12.13;;
4232;SDS011;2130;48.472;11.934;2023-03-15T10:33:04;17.00;;;1.33;;
4232;SDS011;2130;48.472;11.934;2023-03-15T10:36:01;15.47;;;1.40;;
4232;SDS011;2130;48.472;11.934;2023-03-15T10:38:57;16.30;;;1.47;;
4232;SDS011;2130;48.472;11.934;2023-03-15T10:41:46;16.70;;;1.30;;
4232;SDS011;2130;48.472;11.934;2023-03-15T10:44:35;15.00;;;1.40;;
4232;SDS011;2130;48.472;11.934;2023-03-15T10:47:24;22.27;;;1.80;;
4232;SDS011;2130;48.472;11.934;2023-03-15T10:50:16;19.50;;;4.13;;
4232;SDS011;2130;48.472;11.934;2023-03-15T10:53:08;17.20;;;1.40;;
4232;SDS011;2130;48.472;11.934;2023-03-15T10:55:58;16.23;;;1.60;;
4232;SDS011;2130;48.472;11.934;2023-03-15T10:58:48;15.00;;;1.17;;
4232;SDS011;2130;48.472;11.934;2023-03-15T11:02:06;16.50;;;1.40;;
4232;SDS011;2130;48.472;11.934;2023-03-15T11:05:13;15.00;;;1.30;;
4232;SDS011;2130;48.472;11.934;2023-03-15T11:08:03;16.13;;;1.50;;
4232;SDS011;2130;48.472;11.934;2023-03-15T11:10:56;15.30;;;1.43;;
4232;SDS011;2130;48.472;11.934;2023-03-15T11:13:53;15.17;;;1.77;;
4232;SDS011;2130;48.472;11.934;2023-03-15T11:16:45;19.13;;;1.40;;
4232;SDS011;2130;48.472;11.934;2023-03-15T11:19:36;15.80;;;1.20;;
4232;SDS011;2130;48.472;11.934;2023-03-15T11:22:28;14.60;;;1.10;;
4232;SDS011;2130;48.472;11.934;2023-03-15T11:25:16;15.93;;;1.10;;
4232;SDS011;2130;48.472;11.934;2023-03-15T11:28:07;16.90;;;1.40;;
4232;SDS011;2130;48.472;11.934;2023-03-15T11:31:03;16.30;;;1.30;;
4232;SDS011;2130;48.472;11.934;2023-03-15T11:33:52;18.90;;;1.53;;
4232;SDS011;2130;48.472;11.934;2023-03-15T11:36:44;14.57;;;1.20;;
4232;SDS011;2130;48.472;11.934;2023-03-15T11:39:50;19.17;;;1.63;;
4232;SDS011;2130;48.472;11.934;2023-03-15T11:42:57;16.60;;;1.40;;
4232;SDS011;2130;48.472;11.934;2023-03-15T11:45:52;15.10;;;1.60;;
4232;SDS011;2130;48.472;11.934;2023-03-15T11:49:01;14.23;;;1.00;;
4232;SDS011;2130;48.472;11.934;2023-03-15T11:51:53;15.47;;;1.03;;
4232;SDS011;2130;48.472;11.934;2023-03-15T11:54:42;16.00;;;1.30;;
4232;SDS011;2130;48.472;11.934;2023-03-15T11:57:36;15.30;;;1.10;;
4232;SDS011;2130;48.472;11.934;2023-03-15T12:03:39;16.00;;;1.27;;
4232;SDS011;2130;48.472;11.934;2023-03-15T12:06:36;16.00;;;1.00;;
4232;SDS011;2130;48.472;11.934;2023-03-15T12:09:38;16.40;;;1.30;;
4232;SDS011;2130;48.472;11.934;2023-03-15T12:12:36;17.40;;;1.70;;
4232;SDS011;2130;48.472;11.934;2023-03-15T12:15:46;17.43;;;1.30;;
4232;SDS011;2130;48.472;11.934;2023-03-15T12:18:40;16.60;;;1.00;;
4232;SDS011;2130;48.472;11.934;2023-03-15T12:21:30;16.03;;;1.10;;
4232;SDS011;2130;48.472;11.934;2023-03-15T12:24:21;16.73;;;1.10;;
4232;SDS011;2130;48.472;11.934;2023-03-15T12:27:13;15.90;;;1.00;;
4232;SDS011;2130;48.472;11.934;2023-03-15T12:30:03;15.87;;;1.00;;
4232;SDS011;2130;48.472;11.934;2023-03-15T12:32:52;16.17;;;1.00;;
4232;SDS011;2130;48.472;11.934;2023-03-15T12:35:43;16.07;;;1.10;;
4232;SDS011;2130;48.472;11.934;2023-03-15T12:38:34;16.47;;;1.03;;
4232;SDS011;2130;48.472;11.934;2023-03-15T12:41:34;16.27;;;1.00;;
4232;SDS011;2130;48.472;11.934;2023-03-15T12:44:26;16.47;;;1.00;;
4232;SDS011;2130;48.472;11.934;2023-03-15T12:47:25;19.20;;;1.20;;
4232;SDS011;2130;48.472;11.934;2023-03-15T12:50:34;15.93;;;0.90;;
4232;SDS011;2130;48.472;11.934;2023-03-15T12:53:28;16.43;;;1.30;;
4232;SDS011;2130;48.472;11.934;2023-03-15T12:56:35;16.00;;;1.10;;
4232;SDS011;2130;48.472;11.934;2023-03-15T12:59:32;16.03;;;1.17;;
4232;SDS011;2130;48.472;11.934;2023-03-15T13:02:26;17.20;;;1.23;;
4232;SDS011;2130;48.472;11.934;2023-03-15T13:05:29;16.37;;;1.20;;
4232;SDS011;2130;48.472;11.934;2023-03-15T13:08:20;16.57;;;1.10;;
4232;SDS011;2130;48.472;11.934;2023-03-15T13:11:14;16.00;;;1.03;;
4232;SDS011;2130;48.472;11.934;2023-03-15T13:14:13;18.37;;;1.20;;
4232;SDS011;2130;48.472;11.934;2023-03-15T13:17:13;15.70;;;1.00;;
4232;SDS011;2130;48.472;11.934;2023-03-15T13:20:15;16.10;;;1.00;;
4232;SDS011;2130;48.472;11.934;2023-03-15T13:23:12;15.97;;;1.00;;
4232;SDS011;2130;48.472;11.934;2023-03-15T13:26:12;16.03;;;1.00;;
4232;SDS011;2130;48.472;11.934;2023-03-15T13:29:12;15.70;;;0.90;;
4232;SDS011;2130;48.472;11.934;2023-03-15T13:32:07;16.53;;;1.23;;
4232;SDS011;2130;48.472;11.934;2023-03-15T13:35:00;15.70;;;0.90;;
4232;SDS011;2130;48.472;11.934;2023-03-15T13:37:49;16.47;;;1.00;;
4232;SDS011;2130;48.472;11.934;2023-03-15T13:40:47;15.90;;;1.00;;
4232;SDS011;2130;48.472;11.934;2023-03-15T13:43:37;16.40;;;1.00;;
4232;SDS011;2130;48.472;11.934;2023-03-15T13:46:28;16.17;;;1.10;;
4232;SDS011;2130;48.472;11.934;2023-03-15T13:49:18;16.67;;;1.20;;
4232;SDS011;2130;48.472;11.934;2023-03-15T13:52:08;16.13;;;1.00;;
4232;SDS011;2130;48.472;11.934;2023-03-15T13:55:00;16.27;;;1.00;;
4232;SDS011;2130;48.472;11.934;2023-03-15T13:57:50;15.97;;;1.10;;
4232;SDS011;2130;48.472;11.934;2023-03-15T14:00:44;16.10;;;1.10;;
4232;SDS011;2130;48.472;11.934;2023-03-15T14:03:33;16.17;;;0.90;;
4232;SDS011;2130;48.472;11.934;2023-03-15T14:06:22;16.77;;;1.00;;
4232;SDS011;2130;48.472;11.934;2023-03-15T14:09:16;16.63;;;1.00;;
4232;SDS011;2130;48.472;11.934;2023-03-15T14:12:14;16.30;;;1.00;;
4232;SDS011;2130;48.472;11.934;2023-03-15T14:15:13;16.27;;;1.10;;
4232;SDS011;2130;48.472;11.934;2023-03-15T14:18:11;15.70;;;1.10;;
4232;SDS011;2130;48.472;11.934;2023-03-15T14:21:05;16.20;;;1.23;;
4232;SDS011;2130;48.472;11.934;2023-03-15T14:23:54;16.57;;;1.50;;
4232;SDS011;2130;48.472;11.934;2023-03-15T14:26:43;16.53;;;1.20;;
4232;SDS011;2130;48.472;11.934;2023-03-15T14:29:37;15.90;;;1.00;;
4232;SDS011;2130;48.472;11.934;2023-03-15T14:32:30;16.03;;;1.20;;
4232;SDS011;2130;48.472;11.934;2023-03-15T14:35:23;15.90;;;1.03;;
4232;SDS011;2130;48.472;11.934;2023-03-15T14:38:17;15.90;;;1.00;;
4232;SDS011;2130;48.472;11.934;2023-03-15T14:41:16;16.60;;;1.00;;
4232;SDS011;2130;48.472;11.934;2023-03-15T14:44:07;16.07;;;1.13;;
4232;SDS011;2130;48.472;11.934;2023-03-15T14:46:55;15.17;;;1.00;;
4232;SDS011;2130;48.472;11.934;2023-03-15T14:49:43;18.07;;;1.87;;
4232;SDS011;2130;48.472;11.934;2023-03-15T14:52:33;15.80;;;1.00;;
4232;SDS011;2130;48.472;11.934;2023-03-15T14:55:22;16.10;;;1.20;;
4232;SDS011;2130;48.472;11.934;2023-03-15T14:58:12;15.77;;;1.00;;
4232;SDS011;2130;48.472;11.934;2023-03-15T15:01:02;17.17;;;1.27;;
4232;SDS011;2130;48.472;11.934;2023-03-15T15:03:51;15.70;;;1.13;;
4232;SDS011;2130;48.472;11.934;2023-03-15T15:06:41;15.97;;;1.00;;
4232;SDS011;2130;48.472;11.934;2023-03-15T15:09:38;19.30;;;1.60;;
4232;SDS011;2130;48.472;11.934;2023-03-15T15:12:27;16.17;;;1.00;;
4232;SDS011;2130;48.472;11.934;2023-03-15T15:15:16;16.33;;;1.20;;
4232;SDS011;2130;48.472;11.934;2023-03-15T15:18:05;19.20;;;1.00;;
4232;SDS011;2130;48.472;11.934;2023-03-15T15:20:53;16.07;;;1.00;;
4232;SDS011;2130;48.472;11.934;2023-03-15T15:23:43;16.03;;;0.97;;
4232;SDS011;2130;48.472;11.934;2023-03-15T15:26:46;16.53;;;1.40;;
4232;SDS011;2130;48.472;11.934;2023-03-15T15:29:34;15.50;;;1.10;;
4232;SDS011;2130;48.472;11.934;2023-03-15T15:32:23;15.10;;;1.20;;
4232;SDS011;2130;48.472;11.934;2023-03-15T15:35:11;15.60;;;1.10;;
4232;SDS011;2130;48.472;11.934;2023-03-15T15:38:01;16.70;;;1.10;;
4232;SDS011;2130;48.472;11.934;2023-03-15T15:40:49;15.20;;;1.10;;
4232;SDS011;2130;48.472;11.934;2023-03-15T15:43:39;18.40;;;1.10;;
4232;SDS011;2130;48.472;11.934;2023-03-15T15:46:28;17.00;;;1.40;;
4232;SDS011;2130;48.472;11.934;2023-03-15T15:49:16;15.20;;;1.17;;
4232;SDS011;2130;48.472;11.934;2023-03-15T15:52:07;14.50;;;0.90;;
4232;SDS011;2130;48.472;11.934;2023-03-15T15:54:57;17.67;;;1.70;;
4232;SDS011;2130;48.472;11.934;2023-03-15T15:57:47;17.07;;;1.20;;
4232;SDS011;2130;48.472;11.934;2023-03-15T16:00:38;15.20;;;1.10;;
4232;SDS011;2130;48.472;11.934;2023-03-15T16:03:26;15.23;;;1.13;;
4232;SDS011;2130;48.472;11.934;2023-03-15T16:06:15;15.33;;;1.30;;
4232;SDS011;2130;48.472;11.934;2023-03-15T16:09:06;16.17;;;1.47;;
4232;SDS011;2130;48.472;11.934;2023-03-15T16:11:55;16.63;;;1.83;;
4232;SDS011;2130;48.472;11.934;2023-03-15T16:14:44;17.10;;;1.30;;
4232;SDS011;2130;48.472;11.934;2023-03-15T16:17:33;16.00;;;1.00;;
4232;SDS011;2130;48.472;11.934;2023-03-15T16:20:22;15.10;;;1.27;;
4232;SDS011;2130;48.472;11.934;2023-03-15T16:23:12;15.50;;;1.00;;
4232;SDS011;2130;48.472;11.934;2023-03-15T16:26:04;16.50;;;1.23;;
4232;SDS011;2130;48.472;11.934;2023-03-15T16:28:53;16.03;;;1.20;;
4232;SDS011;2130;48.472;11.934;2023-03-15T16:31:41;16.70;;;1.60;;
4232;SDS011;2130;48.472;11.934;2023-03-15T16:34:31;19.37;;;1.30;;
4232;SDS011;2130;48.472;11.934;2023-03-15T16:37:20;16.10;;;1.20;;
4232;SDS011;2130;48.472;11.934;2023-03-15T16:40:14;15.20;;;1.10;;
4232;SDS011;2130;48.472;11.934;2023-03-15T16:43:08;19.13;;;1.80;;
4232;SDS011;2130;48.472;11.934;2023-03-15T16:45:57;15.93;;;1.50;;
4232;SDS011;2130;48.472;11.934;2023-03-15T16:48:46;16.30;;;1.50;;
4232;SDS011;2130;48.472;11.934;2023-03-15T16:51:36;19.37;;;1.70;;
4232;SDS011;2130;48.472;11.934;2023-03-15T16:54:25;15.80;;;1.27;;
4232;SDS011;2130;48.472;11.934;2023-03-15T16:57:27;15.30;;;1.10;;
4232;SDS011;2130;48.472;11.934;2023-03-15T17:00:16;16.13;;;1.30;;
4232;SDS011;2130;48.472;11.934;2023-03-15T17:03:06;16.47;;;1.20;;
4232;SDS011;2130;48.472;11.934;2023-03-15T17:05:54;16.43;;;1.10;;
4232;SDS011;2130;48.472;11.934;2023-03-15T17:08:44;19.30;;;1.57;;
4232;SDS011;2130;48.472;11.934;2023-03-15T17:11:33;15.30;;;1.20;;
4232;SDS011;2130;48.472;11.934;2023-03-15T17:14:24;15.43;;;1.30;;
4232;SDS011;2130;48.472;11.934;2023-03-15T17:17:16;15.40;;;1.33;;
4232;SDS011;2130;48.472;11.934;2023-03-15T17:20:04;17.70;;;1.10;;
4232;SDS011;2130;48.472;11.934;2023-03-15T17:22:56;15.70;;;1.30;;
4232;SDS011;2130;48.472;11.934;2023-03-15T17:25:51;16.20;;;1.40;;
4232;SDS011;2130;48.472;11.934;2023-03-15T17:28:40;16.60;;;1.40;;